sensor_id;sensor_type;location;lat;lon;timestamp;pressure;altitude;pressure_sealevel;temperature;humidity
66945;BME280;53853;51.982;5.928;2022-12-18T00:01:57;102791.63;;;-1.78;71.61
66945;BME280;53853;51.982;5.928;2022-12-18T00:04:28;102778.63;;;-1.83;71.51
66945;BME280;53853;51.982;5.928;2022-12-18T00:07:01;102781.31;;;-1.89;71.52
66945;BME280;53853;51.982;5.928;2022-12-18T00:09:31;102777.06;;;-1.95;71.88
66945;BME280;53853;51.982;5.928;2022-12-18T00:12:01;102773.59;;;-1.97;71.95
66945;BME280;53853;51.982;5.928;2022-12-18T00:14:31;102764.06;;;-1.99;71.89
66945;BME280;53853;51.982;5.928;2022-12-18T00:17:01;102768.47;;;-2.05;72.30
66945;BME280;53853;51.982;5.928;2022-12-18T00:19:30;102776.38;;;-2.09;72.49
66945;BME280;53853;51.982;5.928;2022-12-18T00:22:03;102777.34;;;-2.16;72.67
66945;BME280;53853;51.982;5.928;2022-12-18T00:24:33;102773.03;;;-2.21;73.05
66945;BME280;53853;51.982;5.928;2022-12-18T00:27:03;102766.06;;;-2.20;73.00
66945;BME280;53853;51.982;5.928;2022-12-18T00:29:33;102772.16;;;-2.21;73.58
66945;BME280;53853;51.982;5.928;2022-12-18T00:32:03;102770.41;;;-2.21;73.06
66945;BME280;53853;51.982;5.928;2022-12-18T00:34:33;102764.34;;;-2.23;72.88
66945;BME280;53853;51.982;5.928;2022-12-18T00:37:06;102758.25;;;-2.22;72.95
66945;BME280;53853;51.982;5.928;2022-12-18T00:39:36;102753.91;;;-2.24;72.78
66945;BME280;53853;51.982;5.928;2022-12-18T00:42:07;102747.88;;;-2.28;72.87
66945;BME280;53853;51.982;5.928;2022-12-18T00:44:49;102747.06;;;-2.31;73.10
66945;BME280;53853;51.982;5.928;2022-12-18T00:47:19;102758.38;;;-2.32;72.84
66945;BME280;53853;51.982;5.928;2022-12-18T00:49:49;102761.84;;;-2.32;73.24
66945;BME280;53853;51.982;5.928;2022-12-18T00:52:22;102760.97;;;-2.31;72.60
66945;BME280;53853;51.982;5.928;2022-12-18T00:54:52;102760.97;;;-2.29;72.33
66945;BME280;53853;51.982;5.928;2022-12-18T00:57:22;102769.63;;;-2.27;71.47
66945;BME280;53853;51.982;5.928;2022-12-18T00:59:52;102772.28;;;-2.32;71.46
66945;BME280;53853;51.982;5.928;2022-12-18T01:02:22;102771.44;;;-2.32;71.29
66945;BME280;53853;51.982;5.928;2022-12-18T01:04:52;102768.84;;;-2.32;72.26
66945;BME280;53853;51.982;5.928;2022-12-18T01:07:25;102771.50;;;-2.37;71.84
66945;BME280;53853;51.982;5.928;2022-12-18T01:09:55;102772.41;;;-2.41;72.10
66945;BME280;53853;51.982;5.928;2022-12-18T01:12:25;102779.34;;;-2.39;71.81
66945;BME280;53853;51.982;5.928;2022-12-18T01:14:55;102755.03;;;-2.42;71.42
66945;BME280;53853;51.982;5.928;2022-12-18T01:17:24;102751.56;;;-2.44;72.00
66945;BME280;53853;51.982;5.928;2022-12-18T01:19:54;102750.72;;;-2.48;72.02
66945;BME280;53853;51.982;5.928;2022-12-18T01:22:27;102747.28;;;-2.50;72.07
66945;BME280;53853;51.982;5.928;2022-12-18T01:24:57;102741.22;;;-2.50;72.42
66945;BME280;53853;51.982;5.928;2022-12-18T01:27:27;102743.81;;;-2.49;72.36
66945;BME280;53853;51.982;5.928;2022-12-18T01:29:57;102745.53;;;-2.51;72.38
66945;BME280;53853;51.982;5.928;2022-12-18T01:32:29;102755.13;;;-2.50;72.26
66945;BME280;53853;51.982;5.928;2022-12-18T01:34:59;102741.22;;;-2.50;71.71
66945;BME280;53853;51.982;5.928;2022-12-18T01:37:32;102753.44;;;-2.56;70.66
66945;BME280;53853;51.982;5.928;2022-12-18T01:40:02;102765.69;;;-2.61;70.71
66945;BME280;53853;51.982;5.928;2022-12-18T01:42:32;102762.25;;;-2.64;71.24
66945;BME280;53853;51.982;5.928;2022-12-18T01:45:20;102769.22;;;-2.65;71.31
66945;BME280;53853;51.982;5.928;2022-12-18T01:47:53;102772.69;;;-2.66;71.44
66945;BME280;53853;51.982;5.928;2022-12-18T01:50:27;102774.47;;;-2.68;70.76
66945;BME280;53853;51.982;5.928;2022-12-18T01:53:05;102774.50;;;-2.71;70.90
66945;BME280;53853;51.982;5.928;2022-12-18T01:55:39;102766.69;;;-2.71;71.19
66945;BME280;53853;51.982;5.928;2022-12-18T01:58:11;102757.09;;;-2.72;70.76
66945;BME280;53853;51.982;5.928;2022-12-18T02:00:42;102756.28;;;-2.74;71.03
66945;BME280;53853;51.982;5.928;2022-12-18T02:03:12;102764.94;;;-2.72;70.53
66945;BME280;53853;51.982;5.928;2022-12-18T02:05:46;102769.34;;;-2.77;70.47
66945;BME280;53853;51.982;5.928;2022-12-18T02:08:24;102770.22;;;-2.78;70.46
66945;BME280;53853;51.982;5.928;2022-12-18T02:13:43;102769.44;;;-2.86;70.63
66945;BME280;53853;51.982;5.928;2022-12-18T02:16:21;102769.47;;;-2.89;70.82
66945;BME280;53853;51.982;5.928;2022-12-18T02:18:57;102770.34;;;-2.91;70.40
66945;BME280;53853;51.982;5.928;2022-12-18T02:21:34;102772.09;;;-2.93;70.57
66945;BME280;53853;51.982;5.928;2022-12-18T02:24:18;102764.34;;;-2.99;70.37
66945;BME280;53853;51.982;5.928;2022-12-18T02:26:58;102762.63;;;-3.01;70.77
66945;BME280;53853;51.982;5.928;2022-12-18T02:29:34;102758.28;;;-3.01;70.68
66945;BME280;53853;51.982;5.928;2022-12-18T02:32:09;102758.28;;;-3.01;71.11
66945;BME280;53853;51.982;5.928;2022-12-18T02:34:41;102757.38;;;-3.00;71.31
66945;BME280;53853;51.982;5.928;2022-12-18T02:37:17;102761.72;;;-2.99;70.92
66945;BME280;53853;51.982;5.928;2022-12-18T02:39:50;102762.56;;;-2.97;70.82
66945;BME280;53853;51.982;5.928;2022-12-18T02:42:24;102760.88;;;-3.01;71.12
66945;BME280;53853;51.982;5.928;2022-12-18T02:44:55;102766.16;;;-3.08;71.39
66945;BME280;53853;51.982;5.928;2022-12-18T02:47:29;102759.25;;;-3.14;71.13
66945;BME280;53853;51.982;5.928;2022-12-18T02:50:07;102761.88;;;-3.16;71.11
66945;BME280;53853;51.982;5.928;2022-12-18T02:52:45;102758.41;;;-3.15;71.25
66945;BME280;53853;51.982;5.928;2022-12-18T02:55:29;102754.91;;;-3.14;71.30
66945;BME280;53853;51.982;5.928;2022-12-18T02:58:14;102757.59;;;-3.20;70.73
66945;BME280;53853;51.982;5.928;2022-12-18T03:00:53;102768.03;;;-3.21;70.64
66945;BME280;53853;51.982;5.928;2022-12-18T03:03:33;102761.94;;;-3.20;71.11
66945;BME280;53853;51.982;5.928;2022-12-18T03:06:07;102756.72;;;-3.20;70.94
66945;BME280;53853;51.982;5.928;2022-12-18T03:08:42;102753.25;;;-3.21;70.55
66945;BME280;53853;51.982;5.928;2022-12-18T03:11:15;102748.94;;;-3.23;70.36
66945;BME280;53853;51.982;5.928;2022-12-18T03:14:10;102752.44;;;-3.28;70.33
66945;BME280;53853;51.982;5.928;2022-12-18T03:16:44;102742.84;;;-3.27;70.56
66945;BME280;53853;51.982;5.928;2022-12-18T03:19:18;102736.75;;;-3.23;71.32
66945;BME280;53853;51.982;5.928;2022-12-18T03:21:54;102730.69;;;-3.23;71.42
66945;BME280;53853;51.982;5.928;2022-12-18T03:24:28;102742.84;;;-3.24;70.99
66945;BME280;53853;51.982;5.928;2022-12-18T03:27:02;102736.78;;;-3.26;71.25
66945;BME280;53853;51.982;5.928;2022-12-18T03:29:40;102735.97;;;-3.31;71.29
66945;BME280;53853;51.982;5.928;2022-12-18T03:32:19;102741.19;;;-3.34;71.63
66945;BME280;53853;51.982;5.928;2022-12-18T03:34:53;102731.66;;;-3.37;71.70
66945;BME280;53853;51.982;5.928;2022-12-18T03:37:29;102724.69;;;-3.38;71.61
66945;BME280;53853;51.982;5.928;2022-12-18T03:40:00;102723.00;;;-3.39;71.39
66945;BME280;53853;51.982;5.928;2022-12-18T03:42:39;102719.47;;;-3.35;71.53
66945;BME280;53853;51.982;5.928;2022-12-18T03:45:21;102721.19;;;-3.34;71.02
66945;BME280;53853;51.982;5.928;2022-12-18T03:48:03;102713.38;;;-3.32;70.70
66945;BME280;53853;51.982;5.928;2022-12-18T03:50:42;102712.53;;;-3.34;69.68
66945;BME280;53853;51.982;5.928;2022-12-18T03:53:27;102717.75;;;-3.37;70.45
66945;BME280;53853;51.982;5.928;2022-12-18T03:56:01;102711.66;;;-3.36;70.82
66945;BME280;53853;51.982;5.928;2022-12-18T03:58:38;102703.81;;;-3.36;70.52
66945;BME280;53853;51.982;5.928;2022-12-18T04:01:24;102708.22;;;-3.40;69.77
66945;BME280;53853;51.982;5.928;2022-12-18T04:03:57;102703.03;;;-3.43;70.41
66945;BME280;53853;51.982;5.928;2022-12-18T04:06:31;102704.78;;;-3.42;70.55
66945;BME280;53853;51.982;5.928;2022-12-18T04:09:02;102711.72;;;-3.39;70.79
66945;BME280;53853;51.982;5.928;2022-12-18T04:11:35;102709.06;;;-3.38;70.56
66945;BME280;53853;51.982;5.928;2022-12-18T04:14:06;102703.00;;;-3.38;70.49
66945;BME280;53853;51.982;5.928;2022-12-18T04:16:40;102709.09;;;-3.39;70.57
66945;BME280;53853;51.982;5.928;2022-12-18T04:19:15;102703.84;;;-3.38;70.81
66945;BME280;53853;51.982;5.928;2022-12-18T04:21:48;102704.72;;;-3.36;71.14
66945;BME280;53853;51.982;5.928;2022-12-18T04:24:18;102698.56;;;-3.32;71.45
66945;BME280;53853;51.982;5.928;2022-12-18T04:27:00;102695.13;;;-3.32;70.97
66945;BME280;53853;51.982;5.928;2022-12-18T04:29:34;102698.56;;;-3.32;70.79
66945;BME280;53853;51.982;5.928;2022-12-18T04:32:07;102685.56;;;-3.33;70.77
66945;BME280;53853;51.982;5.928;2022-12-18T04:34:38;102687.31;;;-3.35;70.49
66945;BME280;53853;51.982;5.928;2022-12-18T04:37:08;102690.75;;;-3.33;70.63
66945;BME280;53853;51.982;5.928;2022-12-18T04:39:39;102690.78;;;-3.35;70.92
66945;BME280;53853;51.982;5.928;2022-12-18T04:42:16;102689.94;;;-3.35;70.73
66945;BME280;53853;51.982;5.928;2022-12-18T04:44:46;102688.19;;;-3.35;69.77
66945;BME280;53853;51.982;5.928;2022-12-18T04:47:18;102692.53;;;-3.35;70.40
66945;BME280;53853;51.982;5.928;2022-12-18T04:49:48;102690.78;;;-3.35;70.84
66945;BME280;53853;51.982;5.928;2022-12-18T04:52:18;102699.47;;;-3.33;71.31
66945;BME280;53853;51.982;5.928;2022-12-18T04:54:48;102693.38;;;-3.35;70.33
66945;BME280;53853;51.982;5.928;2022-12-18T04:57:18;102698.59;;;-3.35;70.06
66945;BME280;53853;51.982;5.928;2022-12-18T04:59:48;102695.13;;;-3.35;70.65
66945;BME280;53853;51.982;5.928;2022-12-18T05:02:21;102693.38;;;-3.35;70.34
66945;BME280;53853;51.982;5.928;2022-12-18T05:04:50;102689.91;;;-3.34;70.55
66945;BME280;53853;51.982;5.928;2022-12-18T05:07:20;102686.44;;;-3.34;70.32
66945;BME280;53853;51.982;5.928;2022-12-18T05:09:50;102697.72;;;-3.32;70.50
66945;BME280;53853;51.982;5.928;2022-12-18T05:12:23;102699.47;;;-3.31;70.52
66945;BME280;53853;51.982;5.928;2022-12-18T05:14:53;102702.91;;;-3.31;70.65
66945;BME280;53853;51.982;5.928;2022-12-18T05:17:26;102712.50;;;-3.31;70.54
66945;BME280;53853;51.982;5.928;2022-12-18T05:19:56;102714.22;;;-3.30;70.77
66945;BME280;53853;51.982;5.928;2022-12-18T05:22:26;102721.16;;;-3.31;70.66
66945;BME280;53853;51.982;5.928;2022-12-18T05:24:55;102727.25;;;-3.33;70.78
66945;BME280;53853;51.982;5.928;2022-12-18T05:27:25;102736.84;;;-3.34;70.55
66945;BME280;53853;51.982;5.928;2022-12-18T05:29:55;102732.50;;;-3.36;70.35
66945;BME280;53853;51.982;5.928;2022-12-18T05:32:28;102736.03;;;-3.39;70.52
66945;BME280;53853;51.982;5.928;2022-12-18T05:34:58;102739.50;;;-3.40;70.97
66945;BME280;53853;51.982;5.928;2022-12-18T05:37:28;102749.94;;;-3.40;70.68
66945;BME280;53853;51.982;5.928;2022-12-18T05:39:58;102756.03;;;-3.41;70.36
66945;BME280;53853;51.982;5.928;2022-12-18T05:42:28;102757.75;;;-3.41;70.01
66945;BME280;53853;51.982;5.928;2022-12-18T05:44:58;102761.28;;;-3.44;69.97
66945;BME280;53853;51.982;5.928;2022-12-18T05:47:30;102757.81;;;-3.49;69.66
66945;BME280;53853;51.982;5.928;2022-12-18T05:50:00;102756.09;;;-3.49;70.27
66945;BME280;53853;51.982;5.928;2022-12-18T05:52:31;102755.19;;;-3.46;70.67
66945;BME280;53853;51.982;5.928;2022-12-18T05:55:01;102750.84;;;-3.42;70.70
66945;BME280;53853;51.982;5.928;2022-12-18T05:57:31;102733.44;;;-3.43;70.68
66945;BME280;53853;51.982;5.928;2022-12-18T06:00:01;102725.63;;;-3.43;71.04
66945;BME280;53853;51.982;5.928;2022-12-18T06:02:41;102724.81;;;-3.47;71.00
66945;BME280;53853;51.982;5.928;2022-12-18T06:05:11;102715.22;;;-3.47;70.92
66945;BME280;53853;51.982;5.928;2022-12-18T06:07:41;102715.22;;;-3.47;71.35
66945;BME280;53853;51.982;5.928;2022-12-18T06:10:11;102700.41;;;-3.43;71.26
66945;BME280;53853;51.982;5.928;2022-12-18T06:12:41;102697.81;;;-3.44;70.83
66945;BME280;53853;51.982;5.928;2022-12-18T06:15:11;102697.81;;;-3.44;70.29
66945;BME280;53853;51.982;5.928;2022-12-18T06:17:44;102691.78;;;-3.47;70.38
66945;BME280;53853;51.982;5.928;2022-12-18T06:20:14;102696.97;;;-3.43;71.03
66945;BME280;53853;51.982;5.928;2022-12-18T06:22:44;102703.00;;;-3.41;71.43
66945;BME280;53853;51.982;5.928;2022-12-18T06:25:14;102699.53;;;-3.39;70.95
66945;BME280;53853;51.982;5.928;2022-12-18T06:27:44;102696.91;;;-3.39;71.14
66945;BME280;53853;51.982;5.928;2022-12-18T06:30:16;102694.31;;;-3.40;70.99
66945;BME280;53853;51.982;5.928;2022-12-18T06:32:49;102690.88;;;-3.41;70.84
66945;BME280;53853;51.982;5.928;2022-12-18T06:35:19;102691.75;;;-3.45;70.10
66945;BME280;53853;51.982;5.928;2022-12-18T06:37:49;102684.78;;;-3.43;70.54
66945;BME280;53853;51.982;5.928;2022-12-18T06:40:19;102678.72;;;-3.45;70.78
66945;BME280;53853;51.982;5.928;2022-12-18T06:42:49;102674.38;;;-3.46;71.49
66945;BME280;53853;51.982;5.928;2022-12-18T06:45:19;102681.31;;;-3.42;71.35
66945;BME280;53853;51.982;5.928;2022-12-18T06:47:51;102681.28;;;-3.39;71.30
66945;BME280;53853;51.982;5.928;2022-12-18T06:50:21;102675.16;;;-3.38;71.09
66945;BME280;53853;51.982;5.928;2022-12-18T06:52:51;102675.22;;;-3.41;71.05
66945;BME280;53853;51.982;5.928;2022-12-18T06:55:21;102665.63;;;-3.39;71.31
66945;BME280;53853;51.982;5.928;2022-12-18T06:57:51;102666.50;;;-3.38;71.29
66945;BME280;53853;51.982;5.928;2022-12-18T07:00:21;102664.78;;;-3.39;71.42
66945;BME280;53853;51.982;5.928;2022-12-18T07:02:54;102654.41;;;-3.44;71.24
66945;BME280;53853;51.982;5.928;2022-12-18T07:05:24;102651.78;;;-3.42;71.81
66945;BME280;53853;51.982;5.928;2022-12-18T07:07:54;102646.53;;;-3.39;71.45
66945;BME280;53853;51.982;5.928;2022-12-18T07:10:24;102649.09;;;-3.36;71.83
66945;BME280;53853;51.982;5.928;2022-12-18T07:12:54;102652.53;;;-3.30;71.37
66945;BME280;53853;51.982;5.928;2022-12-18T07:15:24;102653.38;;;-3.29;70.81
66945;BME280;53853;51.982;5.928;2022-12-18T07:17:57;102658.56;;;-3.28;70.44
66945;BME280;53853;51.982;5.928;2022-12-18T07:20:27;102655.09;;;-3.26;70.83
66945;BME280;53853;51.982;5.928;2022-12-18T07:22:57;102648.94;;;-3.22;70.68
66945;BME280;53853;51.982;5.928;2022-12-18T07:25:27;102660.25;;;-3.20;70.77
66945;BME280;53853;51.982;5.928;2022-12-18T07:27:57;102663.66;;;-3.15;71.01
66945;BME280;53853;51.982;5.928;2022-12-18T07:30:27;102656.66;;;-3.12;71.00
66945;BME280;53853;51.982;5.928;2022-12-18T07:32:59;102654.03;;;-3.08;70.49
66945;BME280;53853;51.982;5.928;2022-12-18T07:35:29;102650.53;;;-3.06;70.50
66945;BME280;53853;51.982;5.928;2022-12-18T07:38:01;102649.63;;;-3.05;70.77
66945;BME280;53853;51.982;5.928;2022-12-18T07:40:31;102646.16;;;-3.04;70.66
66945;BME280;53853;51.982;5.928;2022-12-18T07:43:01;102635.72;;;-3.04;70.70
66945;BME280;53853;51.982;5.928;2022-12-18T07:45:31;102631.34;;;-3.03;70.71
66945;BME280;53853;51.982;5.928;2022-12-18T07:48:03;102629.63;;;-3.01;70.84
66945;BME280;53853;51.982;5.928;2022-12-18T07:50:33;102621.72;;;-2.98;70.88
66945;BME280;53853;51.982;5.928;2022-12-18T07:53:03;102617.34;;;-2.93;71.35
66945;BME280;53853;51.982;5.928;2022-12-18T07:55:33;102610.31;;;-2.88;71.32
66945;BME280;53853;51.982;5.928;2022-12-18T07:58:03;102610.22;;;-2.82;71.49
66945;BME280;53853;51.982;5.928;2022-12-18T08:00:34;102604.00;;;-2.73;71.43
66945;BME280;53853;51.982;5.928;2022-12-18T08:03:07;102614.38;;;-2.67;71.09
66945;BME280;53853;51.982;5.928;2022-12-18T08:05:36;102611.72;;;-2.64;71.26
66945;BME280;53853;51.982;5.928;2022-12-18T08:08:06;102605.59;;;-2.60;71.20
66945;BME280;53853;51.982;5.928;2022-12-18T08:10:36;102599.34;;;-2.51;71.09
66945;BME280;53853;51.982;5.928;2022-12-18T08:13:06;102597.53;;;-2.44;70.78
66945;BME280;53853;51.982;5.928;2022-12-18T08:15:36;102600.00;;;-2.35;70.64
66945;BME280;53853;51.982;5.928;2022-12-18T08:18:09;102589.47;;;-2.29;70.49
66945;BME280;53853;51.982;5.928;2022-12-18T08:20:39;102592.84;;;-2.24;70.15
66945;BME280;53853;51.982;5.928;2022-12-18T08:23:09;102593.66;;;-2.19;70.45
66945;BME280;53853;51.982;5.928;2022-12-18T08:25:39;102600.50;;;-2.11;70.42
66945;BME280;53853;51.982;5.928;2022-12-18T08:28:09;102592.53;;;-2.04;69.89
66945;BME280;53853;51.982;5.928;2022-12-18T08:30:39;102595.13;;;-2.01;69.82
66945;BME280;53853;51.982;5.928;2022-12-18T08:33:12;102586.34;;;-1.96;69.66
66945;BME280;53853;51.982;5.928;2022-12-18T08:35:42;102585.41;;;-1.94;69.80
66945;BME280;53853;51.982;5.928;2022-12-18T08:38:12;102574.94;;;-1.92;69.92
66945;BME280;53853;51.982;5.928;2022-12-18T08:40:42;102578.44;;;-1.92;69.39
66945;BME280;53853;51.982;5.928;2022-12-18T08:43:12;102592.25;;;-1.85;69.73
66945;BME280;53853;51.982;5.928;2022-12-18T08:45:54;102599.97;;;-1.77;69.97
66945;BME280;53853;51.982;5.928;2022-12-18T08:48:27;102592.84;;;-1.69;69.28
66945;BME280;53853;51.982;5.928;2022-12-18T08:50:58;102593.63;;;-1.66;69.40
66945;BME280;53853;51.982;5.928;2022-12-18T08:53:28;102596.19;;;-1.62;69.52
66945;BME280;53853;51.982;5.928;2022-12-18T08:55:58;102600.56;;;-1.63;69.22
66945;BME280;53853;51.982;5.928;2022-12-18T08:58:28;102606.56;;;-1.58;69.53
66945;BME280;53853;51.982;5.928;2022-12-18T09:01:00;102596.00;;;-1.52;69.18
66945;BME280;53853;51.982;5.928;2022-12-18T09:03:34;102590.69;;;-1.47;69.12
66945;BME280;53853;51.982;5.928;2022-12-18T09:06:04;102588.03;;;-1.44;68.90
66945;BME280;53853;51.982;5.928;2022-12-18T09:08:34;102595.81;;;-1.41;68.98
66945;BME280;53853;51.982;5.928;2022-12-18T09:11:09;102596.50;;;-1.31;69.13
66945;BME280;53853;51.982;5.928;2022-12-18T09:13:41;102599.81;;;-1.23;69.04
66945;BME280;53853;51.982;5.928;2022-12-18T09:16:11;102597.03;;;-1.14;68.93
66945;BME280;53853;51.982;5.928;2022-12-18T09:18:44;102596.81;;;-1.03;68.80
66945;BME280;53853;51.982;5.928;2022-12-18T09:21:15;102583.50;;;-0.94;68.99
66945;BME280;53853;51.982;5.928;2022-12-18T09:23:50;102591.09;;;-0.81;68.44
66945;BME280;53853;51.982;5.928;2022-12-18T09:26:20;102572.69;;;-0.77;68.27
66945;BME280;53853;51.982;5.928;2022-12-18T09:28:51;102578.59;;;-0.68;68.35
66945;BME280;53853;51.982;5.928;2022-12-18T09:31:23;102576.69;;;-0.60;68.22
66945;BME280;53853;51.982;5.928;2022-12-18T09:33:56;102586.09;;;-0.51;67.77
66945;BME280;53853;51.982;5.928;2022-12-18T09:36:26;102583.22;;;-0.41;67.59
66945;BME280;53853;51.982;5.928;2022-12-18T09:38:56;102580.53;;;-0.38;66.63
66945;BME280;53853;51.982;5.928;2022-12-18T09:44:26;102575.06;;;-0.27;66.64
66945;BME280;53853;51.982;5.928;2022-12-18T09:47:08;102581.03;;;-0.22;66.27
66945;BME280;53853;51.982;5.928;2022-12-18T09:49:44;102578.16;;;-0.11;66.40
66945;BME280;53853;51.982;5.928;2022-12-18T09:52:18;102569.22;;;-0.04;65.38
66945;BME280;53853;51.982;5.928;2022-12-18T09:54:53;102565.78;;;-0.06;65.20
66945;BME280;53853;51.982;5.928;2022-12-18T09:57:28;102563.91;;;-0.01;65.28
66945;BME280;53853;51.982;5.928;2022-12-18T10:00:03;102561.19;;;0.04;66.01
66945;BME280;53853;51.982;5.928;2022-12-18T10:02:38;102556.66;;;0.09;65.56
66945;BME280;53853;51.982;5.928;2022-12-18T10:05:13;102553.88;;;0.15;65.61
66945;BME280;53853;51.982;5.928;2022-12-18T10:07:50;102538.03;;;0.20;65.52
66945;BME280;53853;51.982;5.928;2022-12-18T10:10:37;102535.38;;;0.22;64.90
66945;BME280;53853;51.982;5.928;2022-12-18T10:13:19;102543.09;;;0.28;65.06
66945;BME280;53853;51.982;5.928;2022-12-18T10:15:59;102544.81;;;0.29;64.99
66945;BME280;53853;51.982;5.928;2022-12-18T10:18:46;102537.78;;;0.29;64.87
66945;BME280;53853;51.982;5.928;2022-12-18T10:21:28;102534.94;;;0.39;65.27
66945;BME280;53853;51.982;5.928;2022-12-18T10:24:08;102531.22;;;0.46;65.08
66945;BME280;53853;51.982;5.928;2022-12-18T10:26:44;102523.19;;;0.52;64.64
66945;BME280;53853;51.982;5.928;2022-12-18T10:29:16;102517.03;;;0.53;64.78
66945;BME280;53853;51.982;5.928;2022-12-18T10:31:46;102515.22;;;0.55;64.52
66945;BME280;53853;51.982;5.928;2022-12-18T10:34:16;102508.13;;;0.59;64.31
66945;BME280;53853;51.982;5.928;2022-12-18T10:36:48;102515.09;;;0.60;64.55
66945;BME280;53853;51.982;5.928;2022-12-18T10:39:20;102513.16;;;0.66;64.58
66945;BME280;53853;51.982;5.928;2022-12-18T10:41:51;102511.19;;;0.75;64.32
66945;BME280;53853;51.982;5.928;2022-12-18T10:44:23;102497.00;;;0.80;64.04
66945;BME280;53853;51.982;5.928;2022-12-18T10:46:55;102496.84;;;0.86;63.74
66945;BME280;53853;51.982;5.928;2022-12-18T10:49:33;102501.09;;;0.90;63.77
66945;BME280;53853;51.982;5.928;2022-12-18T10:52:14;102492.91;;;1.00;63.67
66945;BME280;53853;51.982;5.928;2022-12-18T10:54:50;102481.38;;;1.05;63.28
66945;BME280;53853;51.982;5.928;2022-12-18T10:57:33;102475.84;;;1.15;63.42
66945;BME280;53853;51.982;5.928;2022-12-18T11:00:24;102470.34;;;1.22;62.82
66945;BME280;53853;51.982;5.928;2022-12-18T11:02:55;102467.72;;;1.22;62.55
66945;BME280;53853;51.982;5.928;2022-12-18T11:05:28;102470.22;;;1.27;62.45
66945;BME280;53853;51.982;5.928;2022-12-18T11:08:01;102470.88;;;1.34;62.26
66945;BME280;53853;51.982;5.928;2022-12-18T11:10:32;102470.72;;;1.38;62.09
66945;BME280;53853;51.982;5.928;2022-12-18T11:13:11;102467.84;;;1.46;62.10
66945;BME280;53853;51.982;5.928;2022-12-18T11:15:42;102464.94;;;1.54;62.01
66945;BME280;53853;51.982;5.928;2022-12-18T11:18:22;102461.31;;;1.58;61.56
66945;BME280;53853;51.982;5.928;2022-12-18T11:20:54;102468.88;;;1.67;61.62
66945;BME280;53853;51.982;5.928;2022-12-18T11:23:28;102460.63;;;1.78;60.70
66945;BME280;53853;51.982;5.928;2022-12-18T11:25:59;102453.59;;;1.78;60.37
66945;BME280;53853;51.982;5.928;2022-12-18T11:28:36;102448.09;;;1.86;60.60
66945;BME280;53853;51.982;5.928;2022-12-18T11:31:19;102439.16;;;1.90;60.20
66945;BME280;53853;51.982;5.928;2022-12-18T11:33:57;102428.69;;;1.89;59.63
66945;BME280;53853;51.982;5.928;2022-12-18T11:36:32;102419.16;;;1.86;59.74
66945;BME280;53853;51.982;5.928;2022-12-18T11:39:13;102421.78;;;1.86;59.63
66945;BME280;53853;51.982;5.928;2022-12-18T11:41:50;102425.09;;;1.91;59.83
66945;BME280;53853;51.982;5.928;2022-12-18T11:44:42;102427.47;;;1.99;59.61
66945;BME280;53853;51.982;5.928;2022-12-18T11:47:19;102422.16;;;2.01;59.30
66945;BME280;53853;51.982;5.928;2022-12-18T11:49:52;102429.03;;;2.05;59.31
66945;BME280;53853;51.982;5.928;2022-12-18T11:52:25;102427.16;;;2.08;59.03
66945;BME280;53853;51.982;5.928;2022-12-18T11:55:01;102422.69;;;2.10;59.33
66945;BME280;53853;51.982;5.928;2022-12-18T11:57:39;102421.09;;;2.06;58.66
66945;BME280;53853;51.982;5.928;2022-12-18T12:00:15;102415.63;;;2.11;58.21
66945;BME280;53853;51.982;5.928;2022-12-18T12:03:12;102406.69;;;2.16;57.92
66945;BME280;53853;51.982;5.928;2022-12-18T12:05:55;102406.50;;;2.21;58.30
66945;BME280;53853;51.982;5.928;2022-12-18T12:08:38;102395.94;;;2.23;58.38
66945;BME280;53853;51.982;5.928;2022-12-18T12:11:19;102388.72;;;2.28;58.20
66945;BME280;53853;51.982;5.928;2022-12-18T12:14:01;102380.66;;;2.32;57.96
66945;BME280;53853;51.982;5.928;2022-12-18T12:16:40;102374.38;;;2.37;58.05
66945;BME280;53853;51.982;5.928;2022-12-18T12:19:28;102376.94;;;2.38;58.09
66945;BME280;53853;51.982;5.928;2022-12-18T12:22:08;102369.84;;;2.40;57.47
66945;BME280;53853;51.982;5.928;2022-12-18T12:24:54;102369.72;;;2.43;57.77
66945;BME280;53853;51.982;5.928;2022-12-18T12:27:36;102368.66;;;2.47;57.76
66945;BME280;53853;51.982;5.928;2022-12-18T12:30:14;102368.56;;;2.50;57.05
66945;BME280;53853;51.982;5.928;2022-12-18T12:32:58;102374.69;;;2.51;57.19
66945;BME280;53853;51.982;5.928;2022-12-18T12:35:37;102370.16;;;2.54;56.64
66945;BME280;53853;51.982;5.928;2022-12-18T12:38:15;102371.94;;;2.54;56.91
66945;BME280;53853;51.982;5.928;2022-12-18T12:40:51;102367.59;;;2.53;57.11
66945;BME280;53853;51.982;5.928;2022-12-18T12:43:27;102355.22;;;2.55;56.95
66945;BME280;53853;51.982;5.928;2022-12-18T12:45:58;102349.91;;;2.57;56.10
66945;BME280;53853;51.982;5.928;2022-12-18T12:48:37;102342.06;;;2.55;56.50
66945;BME280;53853;51.982;5.928;2022-12-18T12:51:13;102338.59;;;2.54;56.03
66945;BME280;53853;51.982;5.928;2022-12-18T12:53:45;102337.84;;;2.51;56.42
66945;BME280;53853;51.982;5.928;2022-12-18T12:56:17;102331.72;;;2.50;56.42
66945;BME280;53853;51.982;5.928;2022-12-18T12:58:58;102332.47;;;2.54;56.80
66945;BME280;53853;51.982;5.928;2022-12-18T13:01:37;102327.94;;;2.58;56.46
66945;BME280;53853;51.982;5.928;2022-12-18T13:04:19;102322.78;;;2.54;56.27
66945;BME280;53853;51.982;5.928;2022-12-18T13:06:58;102321.00;;;2.55;56.46
66945;BME280;53853;51.982;5.928;2022-12-18T13:09:32;102312.25;;;2.54;56.20
66945;BME280;53853;51.982;5.928;2022-12-18T13:12:08;102308.59;;;2.59;56.40
66945;BME280;53853;51.982;5.928;2022-12-18T13:15:19;102314.72;;;2.59;55.83
66945;BME280;53853;51.982;5.928;2022-12-18T13:18:17;102314.00;;;2.56;55.69
66945;BME280;53853;51.982;5.928;2022-12-18T13:20:50;102307.19;;;2.50;56.06
66945;BME280;53853;51.982;5.928;2022-12-18T13:23:32;102298.31;;;2.52;56.37
66945;BME280;53853;51.982;5.928;2022-12-18T13:26:32;102293.97;;;2.51;55.86
66945;BME280;53853;51.982;5.928;2022-12-18T13:29:03;102293.06;;;2.52;56.28
66945;BME280;53853;51.982;5.928;2022-12-18T13:34:39;102308.84;;;2.52;55.44
66945;BME280;53853;51.982;5.928;2022-12-18T13:37:38;102292.13;;;2.53;55.53